Startpagina
METAR-TAF:

METAR-TAF

Vliegvelden :

Kashgar, China

breedte: 39-28N, lengte: 075-59E, hoogte: 1291 m

Actueel weer

Dit bericht is 23 minuten geleden gemaakt, om 14:00 UTC
Weinig wind
Temperatuur 28°C
Vochtigheid 32%
Druk 1009 hPa
Zicht 10 km of meer
Weinig wolken op 4000 ft

METAR: ZWSH 181400Z 00000MPS 9999 FEW040 28/10 Q1009 NOSIG

Tijdstip: 22:23 (14:23 UTC)

Verwachting

Dit bericht is 5 uur en het 16 minuten geleden gemaakt, om 09:07 UTC
Verwachting geldig van 18 om 12 UTC tot 19 om 12 UTC
Wind 8 kt uit het zuidzuidoosten
Zicht: 8000 m
Weinig wolken op 4000 ft
Wijzigt naar
van 18 om 15 UTC tot 18 om 16 UTC
Wind 8 kt uit het noordwesten
Wijzigt naar
van 19 om 05 UTC tot 19 om 06 UTC
Wind 8 kt uit het oostnoordoosten

TAF: ZWSH 180907Z 1812/1912 15004MPS 8000 FEW040 TX32/1909Z TN24/1900Z BECMG 1815/1816 31004MPS BECMG 1905/1906 06004MPS

Waarnemingen en weersverwachtingen van meer dan 4000 vliegvelden (METAR en TAF).

De beschikbare stations zijn de gele en rode punten op de kaart.

Ga met uw muis naar het station om de naam te zien.

Klik dan om waarnemingen en weersverwachtingen te zien.

kaart wijzigen: klik op de groene knoppen met een zwart kruis om in te zoomen, op de groene knop met een streepje om uit te zoomen of op de groene pijlen voor aangrenzende kaarten.


METAR-TAF: